sensor_id;sensor_type;location;lat;lon;timestamp;pressure;altitude;pressure_sealevel;temperature;humidity
71165;BME280;58859;55.132;-1.586;2023-08-30T00:00:54;100135.56;;;20.28;100.00
71165;BME280;58859;55.132;-1.586;2023-08-30T00:03:19;100134.09;;;19.16;100.00
71165;BME280;58859;55.132;-1.586;2023-08-30T00:05:44;100139.00;;;20.10;100.00
71165;BME280;58859;55.132;-1.586;2023-08-30T00:08:10;100145.31;;;19.12;100.00
71165;BME280;58859;55.132;-1.586;2023-08-30T00:10:35;100152.38;;;19.97;100.00
71165;BME280;58859;55.132;-1.586;2023-08-30T00:13:00;100141.31;;;19.27;100.00
71165;BME280;58859;55.132;-1.586;2023-08-30T00:15:27;100150.09;;;18.72;100.00
71165;BME280;58859;55.132;-1.586;2023-08-30T00:17:52;100148.25;;;18.34;100.00
71165;BME280;58859;55.132;-1.586;2023-08-30T00:20:18;100145.72;;;19.94;100.00
71165;BME280;58859;55.132;-1.586;2023-08-30T00:22:44;100147.72;;;20.11;100.00
71165;BME280;58859;55.132;-1.586;2023-08-30T00:25:09;100137.47;;;20.02;100.00
71165;BME280;58859;55.132;-1.586;2023-08-30T00:27:35;100145.94;;;20.23;100.00
71165;BME280;58859;55.132;-1.586;2023-08-30T00:30:00;100132.09;;;20.27;100.00
71165;BME280;58859;55.132;-1.586;2023-08-30T00:32:26;100147.84;;;19.00;100.00
71165;BME280;58859;55.132;-1.586;2023-08-30T00:34:51;100140.03;;;20.09;100.00
71165;BME280;58859;55.132;-1.586;2023-08-30T00:37:17;100141.03;;;19.60;100.00
71165;BME280;58859;55.132;-1.586;2023-08-30T00:39:42;100142.34;;;19.69;100.00
71165;BME280;58859;55.132;-1.586;2023-08-30T00:42:08;100142.88;;;20.55;100.00
71165;BME280;58859;55.132;-1.586;2023-08-30T00:44:34;100150.31;;;19.99;100.00
71165;BME280;58859;55.132;-1.586;2023-08-30T00:47:01;100143.88;;;19.77;100.00
71165;BME280;58859;55.132;-1.586;2023-08-30T00:49:29;100146.78;;;19.50;100.00
71165;BME280;58859;55.132;-1.586;2023-08-30T00:51:56;100155.53;;;19.87;100.00
71165;BME280;58859;55.132;-1.586;2023-08-30T00:54:22;100150.41;;;19.74;100.00
71165;BME280;58859;55.132;-1.586;2023-08-30T00:56:48;100154.81;;;19.80;100.00
71165;BME280;58859;55.132;-1.586;2023-08-30T00:59:16;100153.06;;;18.44;100.00
71165;BME280;58859;55.132;-1.586;2023-08-30T01:01:41;100158.09;;;19.33;100.00
71165;BME280;58859;55.132;-1.586;2023-08-30T01:04:07;100143.50;;;19.73;100.00
71165;BME280;58859;55.132;-1.586;2023-08-30T01:06:32;100155.09;;;19.90;100.00
71165;BME280;58859;55.132;-1.586;2023-08-30T01:09:01;100146.78;;;19.87;100.00
71165;BME280;58859;55.132;-1.586;2023-08-30T01:11:43;100155.63;;;19.81;100.00
71165;BME280;58859;55.132;-1.586;2023-08-30T01:14:21;100157.72;;;19.54;100.00
71165;BME280;58859;55.132;-1.586;2023-08-30T01:16:48;100163.53;;;19.13;100.00
71165;BME280;58859;55.132;-1.586;2023-08-30T01:19:48;100152.25;;;20.40;100.00
71165;BME280;58859;55.132;-1.586;2023-08-30T01:24:55;100144.81;;;20.00;100.00
71165;BME280;58859;55.132;-1.586;2023-08-30T01:27:23;100146.38;;;19.72;100.00
71165;BME280;58859;55.132;-1.586;2023-08-30T01:29:54;100143.44;;;19.62;100.00
71165;BME280;58859;55.132;-1.586;2023-08-30T01:32:25;100146.28;;;18.92;100.00
71165;BME280;58859;55.132;-1.586;2023-08-30T01:34:55;100140.44;;;19.33;100.00
71165;BME280;58859;55.132;-1.586;2023-08-30T01:37:21;100132.94;;;18.87;100.00
71165;BME280;58859;55.132;-1.586;2023-08-30T01:39:47;100139.31;;;20.02;100.00
71165;BME280;58859;55.132;-1.586;2023-08-30T01:42:13;100135.25;;;19.27;100.00
71165;BME280;58859;55.132;-1.586;2023-08-30T01:44:40;100132.47;;;18.72;100.00
71165;BME280;58859;55.132;-1.586;2023-08-30T01:47:07;100127.41;;;18.96;100.00
71165;BME280;58859;55.132;-1.586;2023-08-30T01:49:33;100126.94;;;18.49;100.00
71165;BME280;58859;55.132;-1.586;2023-08-30T01:51:59;100116.81;;;19.45;100.00
71165;BME280;58859;55.132;-1.586;2023-08-30T01:54:26;100122.47;;;18.81;100.00
71165;BME280;58859;55.132;-1.586;2023-08-30T01:56:53;100132.16;;;18.87;100.00
71165;BME280;58859;55.132;-1.586;2023-08-30T01:59:18;100126.78;;;19.61;100.00
71165;BME280;58859;55.132;-1.586;2023-08-30T02:01:44;100113.00;;;19.16;100.00
71165;BME280;58859;55.132;-1.586;2023-08-30T02:04:09;100123.09;;;19.01;100.00
71165;BME280;58859;55.132;-1.586;2023-08-30T02:07:13;100125.78;;;19.62;100.00
71165;BME280;58859;55.132;-1.586;2023-08-30T02:09:47;100120.50;;;19.62;100.00
71165;BME280;58859;55.132;-1.586;2023-08-30T02:12:15;100128.63;;;18.68;100.00
71165;BME280;58859;55.132;-1.586;2023-08-30T02:14:45;100123.22;;;19.13;100.00
71165;BME280;58859;55.132;-1.586;2023-08-30T02:17:14;100108.31;;;19.79;100.00
71165;BME280;58859;55.132;-1.586;2023-08-30T02:19:40;100110.91;;;19.49;100.00
71165;BME280;58859;55.132;-1.586;2023-08-30T02:22:06;100116.03;;;19.63;100.00
71165;BME280;58859;55.132;-1.586;2023-08-30T02:24:31;100120.94;;;19.59;100.00
71165;BME280;58859;55.132;-1.586;2023-08-30T02:26:56;100123.38;;;19.61;100.00
71165;BME280;58859;55.132;-1.586;2023-08-30T02:29:22;100122.75;;;19.40;100.00
71165;BME280;58859;55.132;-1.586;2023-08-30T02:31:47;100129.50;;;18.87;100.00
71165;BME280;58859;55.132;-1.586;2023-08-30T02:34:12;100123.66;;;19.89;100.00
71165;BME280;58859;55.132;-1.586;2023-08-30T02:36:38;100130.84;;;19.21;100.00
71165;BME280;58859;55.132;-1.586;2023-08-30T02:39:04;100136.88;;;19.03;100.00
71165;BME280;58859;55.132;-1.586;2023-08-30T02:41:29;100123.56;;;19.16;100.00
71165;BME280;58859;55.132;-1.586;2023-08-30T02:43:54;100128.03;;;18.28;100.00
71165;BME280;58859;55.132;-1.586;2023-08-30T02:46:20;100124.47;;;19.28;100.00
71165;BME280;58859;55.132;-1.586;2023-08-30T02:48:45;100134.19;;;19.71;100.00
71165;BME280;58859;55.132;-1.586;2023-08-30T02:51:10;100132.56;;;18.84;100.00
71165;BME280;58859;55.132;-1.586;2023-08-30T02:53:36;100128.63;;;17.86;100.00
71165;BME280;58859;55.132;-1.586;2023-08-30T02:56:01;100124.28;;;19.05;100.00
71165;BME280;58859;55.132;-1.586;2023-08-30T02:58:27;100125.53;;;19.82;100.00
71165;BME280;58859;55.132;-1.586;2023-08-30T03:00:52;100121.75;;;19.60;100.00
71165;BME280;58859;55.132;-1.586;2023-08-30T03:03:18;100125.97;;;19.97;100.00
71165;BME280;58859;55.132;-1.586;2023-08-30T03:05:44;100127.78;;;19.24;100.00
71165;BME280;58859;55.132;-1.586;2023-08-30T03:08:09;100132.44;;;17.97;100.00
71165;BME280;58859;55.132;-1.586;2023-08-30T03:10:34;100125.19;;;19.17;100.00
71165;BME280;58859;55.132;-1.586;2023-08-30T03:13:00;100119.25;;;19.22;100.00
71165;BME280;58859;55.132;-1.586;2023-08-30T03:15:25;100132.25;;;17.98;100.00
71165;BME280;58859;55.132;-1.586;2023-08-30T03:17:51;100132.28;;;18.67;100.00
71165;BME280;58859;55.132;-1.586;2023-08-30T03:20:16;100136.00;;;19.09;100.00
71165;BME280;58859;55.132;-1.586;2023-08-30T03:22:41;100125.66;;;19.08;100.00
71165;BME280;58859;55.132;-1.586;2023-08-30T03:25:07;100124.69;;;17.57;100.00
71165;BME280;58859;55.132;-1.586;2023-08-30T03:27:34;100126.56;;;17.04;100.00
71165;BME280;58859;55.132;-1.586;2023-08-30T03:30:00;100130.69;;;17.84;100.00
71165;BME280;58859;55.132;-1.586;2023-08-30T03:32:26;100127.38;;;18.02;100.00
71165;BME280;58859;55.132;-1.586;2023-08-30T03:34:51;100108.03;;;18.83;100.00
71165;BME280;58859;55.132;-1.586;2023-08-30T03:37:17;100116.91;;;19.14;100.00
71165;BME280;58859;55.132;-1.586;2023-08-30T03:39:42;100113.91;;;19.28;100.00
71165;BME280;58859;55.132;-1.586;2023-08-30T03:42:08;100111.41;;;19.58;100.00
71165;BME280;58859;55.132;-1.586;2023-08-30T03:44:33;100117.31;;;18.92;100.00
71165;BME280;58859;55.132;-1.586;2023-08-30T03:46:59;100109.72;;;19.64;100.00
71165;BME280;58859;55.132;-1.586;2023-08-30T03:49:24;100104.16;;;19.72;100.00
71165;BME280;58859;55.132;-1.586;2023-08-30T03:51:50;100106.84;;;19.65;100.00
71165;BME280;58859;55.132;-1.586;2023-08-30T03:54:15;100122.19;;;18.26;100.00
71165;BME280;58859;55.132;-1.586;2023-08-30T03:56:44;100122.38;;;18.63;100.00
71165;BME280;58859;55.132;-1.586;2023-08-30T03:59:11;100124.94;;;18.00;100.00
71165;BME280;58859;55.132;-1.586;2023-08-30T04:01:36;100126.75;;;18.44;100.00
71165;BME280;58859;55.132;-1.586;2023-08-30T04:04:02;100113.56;;;18.13;100.00
71165;BME280;58859;55.132;-1.586;2023-08-30T04:06:27;100122.38;;;18.25;100.00
71165;BME280;58859;55.132;-1.586;2023-08-30T04:08:53;100117.84;;;17.37;100.00
71165;BME280;58859;55.132;-1.586;2023-08-30T04:11:18;100121.28;;;18.39;100.00
71165;BME280;58859;55.132;-1.586;2023-08-30T04:13:44;100117.75;;;18.58;100.00
71165;BME280;58859;55.132;-1.586;2023-08-30T04:16:10;100113.31;;;17.70;100.00
71165;BME280;58859;55.132;-1.586;2023-08-30T04:18:35;100104.03;;;17.67;100.00
71165;BME280;58859;55.132;-1.586;2023-08-30T04:21:00;100110.84;;;18.26;100.00
71165;BME280;58859;55.132;-1.586;2023-08-30T04:23:28;100113.06;;;17.85;100.00
71165;BME280;58859;55.132;-1.586;2023-08-30T04:25:53;100117.03;;;18.07;100.00
71165;BME280;58859;55.132;-1.586;2023-08-30T04:28:19;100107.50;;;17.42;100.00
71165;BME280;58859;55.132;-1.586;2023-08-30T04:30:44;100115.38;;;17.61;100.00
71165;BME280;58859;55.132;-1.586;2023-08-30T04:33:10;100118.47;;;17.19;100.00
71165;BME280;58859;55.132;-1.586;2023-08-30T04:35:35;100116.66;;;16.67;100.00
71165;BME280;58859;55.132;-1.586;2023-08-30T04:38:01;100113.63;;;16.83;100.00
71165;BME280;58859;55.132;-1.586;2023-08-30T04:40:28;100122.31;;;15.97;100.00
71165;BME280;58859;55.132;-1.586;2023-08-30T04:42:55;100119.69;;;17.16;100.00
71165;BME280;58859;55.132;-1.586;2023-08-30T04:45:21;100119.00;;;15.82;100.00
71165;BME280;58859;55.132;-1.586;2023-08-30T04:47:47;100112.94;;;16.29;100.00
71165;BME280;58859;55.132;-1.586;2023-08-30T04:50:13;100120.31;;;16.12;100.00
71165;BME280;58859;55.132;-1.586;2023-08-30T04:52:38;100109.31;;;16.36;100.00
71165;BME280;58859;55.132;-1.586;2023-08-30T04:55:04;100118.31;;;16.07;100.00
71165;BME280;58859;55.132;-1.586;2023-08-30T04:57:30;100116.13;;;16.18;100.00
71165;BME280;58859;55.132;-1.586;2023-08-30T04:59:55;100118.56;;;15.10;100.00
71165;BME280;58859;55.132;-1.586;2023-08-30T05:02:21;100118.44;;;15.93;100.00
71165;BME280;58859;55.132;-1.586;2023-08-30T05:04:46;100123.41;;;15.13;100.00
71165;BME280;58859;55.132;-1.586;2023-08-30T05:07:11;100120.50;;;15.29;100.00
71165;BME280;58859;55.132;-1.586;2023-08-30T05:09:38;100117.25;;;14.99;100.00
71165;BME280;58859;55.132;-1.586;2023-08-30T05:12:06;100113.50;;;14.80;100.00
71165;BME280;58859;55.132;-1.586;2023-08-30T05:14:31;100121.81;;;15.74;100.00
71165;BME280;58859;55.132;-1.586;2023-08-30T05:16:56;100123.44;;;15.75;100.00
71165;BME280;58859;55.132;-1.586;2023-08-30T05:19:22;100118.00;;;16.37;100.00
71165;BME280;58859;55.132;-1.586;2023-08-30T05:21:47;100122.44;;;16.49;100.00
71165;BME280;58859;55.132;-1.586;2023-08-30T05:24:16;100108.38;;;15.56;100.00
71165;BME280;58859;55.132;-1.586;2023-08-30T05:26:42;100128.25;;;15.16;100.00
71165;BME280;58859;55.132;-1.586;2023-08-30T05:29:07;100125.38;;;15.60;100.00
71165;BME280;58859;55.132;-1.586;2023-08-30T05:31:33;100129.19;;;15.29;100.00
71165;BME280;58859;55.132;-1.586;2023-08-30T05:33:58;100122.91;;;17.18;100.00
71165;BME280;58859;55.132;-1.586;2023-08-30T05:36:23;100126.88;;;16.49;100.00
71165;BME280;58859;55.132;-1.586;2023-08-30T05:38:49;100132.56;;;16.46;100.00
71165;BME280;58859;55.132;-1.586;2023-08-30T05:41:14;100125.03;;;16.23;100.00
71165;BME280;58859;55.132;-1.586;2023-08-30T05:43:40;100137.47;;;17.01;100.00
71165;BME280;58859;55.132;-1.586;2023-08-30T05:46:05;100146.66;;;17.83;100.00
71165;BME280;58859;55.132;-1.586;2023-08-30T05:48:33;100141.72;;;17.22;100.00
71165;BME280;58859;55.132;-1.586;2023-08-30T05:50:58;100153.53;;;17.84;100.00
71165;BME280;58859;55.132;-1.586;2023-08-30T05:53:24;100153.22;;;16.69;100.00
71165;BME280;58859;55.132;-1.586;2023-08-30T05:55:49;100149.00;;;16.87;100.00
71165;BME280;58859;55.132;-1.586;2023-08-30T05:58:15;100150.50;;;16.49;100.00
71165;BME280;58859;55.132;-1.586;2023-08-30T06:00:41;100149.97;;;17.65;100.00
71165;BME280;58859;55.132;-1.586;2023-08-30T06:03:07;100153.41;;;17.26;100.00
71165;BME280;58859;55.132;-1.586;2023-08-30T06:05:33;100146.88;;;19.62;100.00
71165;BME280;58859;55.132;-1.586;2023-08-30T06:07:58;100162.31;;;18.22;100.00
71165;BME280;58859;55.132;-1.586;2023-08-30T06:10:24;100158.38;;;16.49;100.00
71165;BME280;58859;55.132;-1.586;2023-08-30T06:12:49;100162.81;;;15.88;100.00
71165;BME280;58859;55.132;-1.586;2023-08-30T06:15:15;100160.41;;;15.93;100.00
71165;BME280;58859;55.132;-1.586;2023-08-30T06:17:40;100159.03;;;18.26;100.00
71165;BME280;58859;55.132;-1.586;2023-08-30T06:20:06;100157.50;;;19.56;100.00
71165;BME280;58859;55.132;-1.586;2023-08-30T06:22:32;100141.41;;;22.39;100.00
71165;BME280;58859;55.132;-1.586;2023-08-30T06:24:57;100154.88;;;23.32;100.00
71165;BME280;58859;55.132;-1.586;2023-08-30T06:27:23;100151.94;;;20.48;100.00
71165;BME280;58859;55.132;-1.586;2023-08-30T06:29:49;100152.53;;;21.26;100.00
71165;BME280;58859;55.132;-1.586;2023-08-30T06:32:16;100159.47;;;21.27;100.00
71165;BME280;58859;55.132;-1.586;2023-08-30T06:34:42;100157.13;;;21.65;100.00
71165;BME280;58859;55.132;-1.586;2023-08-30T06:37:07;100161.91;;;20.87;100.00
71165;BME280;58859;55.132;-1.586;2023-08-30T06:39:33;100131.56;;;20.78;100.00
71165;BME280;58859;55.132;-1.586;2023-08-30T06:42:00;100150.50;;;21.40;100.00
71165;BME280;58859;55.132;-1.586;2023-08-30T06:44:25;100159.63;;;21.84;100.00
71165;BME280;58859;55.132;-1.586;2023-08-30T06:46:50;100158.47;;;21.91;100.00
71165;BME280;58859;55.132;-1.586;2023-08-30T06:49:16;100155.84;;;21.91;100.00
71165;BME280;58859;55.132;-1.586;2023-08-30T06:51:41;100151.47;;;22.25;100.00
71165;BME280;58859;55.132;-1.586;2023-08-30T06:54:07;100157.81;;;22.24;100.00
71165;BME280;58859;55.132;-1.586;2023-08-30T06:56:32;100148.91;;;22.02;100.00
71165;BME280;58859;55.132;-1.586;2023-08-30T06:58:58;100155.06;;;21.91;100.00
71165;BME280;58859;55.132;-1.586;2023-08-30T07:01:23;100152.31;;;21.16;100.00
71165;BME280;58859;55.132;-1.586;2023-08-30T07:03:48;100150.56;;;22.19;100.00
71165;BME280;58859;55.132;-1.586;2023-08-30T07:06:14;100153.81;;;21.58;100.00
71165;BME280;58859;55.132;-1.586;2023-08-30T07:08:39;100159.09;;;21.35;100.00
71165;BME280;58859;55.132;-1.586;2023-08-30T07:11:05;100153.41;;;22.29;100.00
71165;BME280;58859;55.132;-1.586;2023-08-30T07:13:30;100143.19;;;22.21;100.00
71165;BME280;58859;55.132;-1.586;2023-08-30T07:15:55;100155.63;;;22.49;100.00
71165;BME280;58859;55.132;-1.586;2023-08-30T07:18:21;100148.66;;;22.60;100.00
71165;BME280;58859;55.132;-1.586;2023-08-30T07:20:46;100150.34;;;21.69;100.00
71165;BME280;58859;55.132;-1.586;2023-08-30T07:23:12;100148.91;;;22.58;100.00
71165;BME280;58859;55.132;-1.586;2023-08-30T07:25:37;100143.72;;;22.35;100.00
71165;BME280;58859;55.132;-1.586;2023-08-30T07:28:04;100154.25;;;22.75;100.00
71165;BME280;58859;55.132;-1.586;2023-08-30T07:30:29;100152.16;;;21.92;100.00
71165;BME280;58859;55.132;-1.586;2023-08-30T07:32:56;100159.34;;;22.08;100.00
71165;BME280;58859;55.132;-1.586;2023-08-30T07:35:21;100160.19;;;22.54;100.00
71165;BME280;58859;55.132;-1.586;2023-08-30T07:37:47;100158.53;;;21.45;100.00
71165;BME280;58859;55.132;-1.586;2023-08-30T07:40:13;100164.94;;;21.60;100.00
71165;BME280;58859;55.132;-1.586;2023-08-30T07:42:38;100166.06;;;22.39;100.00
71165;BME280;58859;55.132;-1.586;2023-08-30T07:45:04;100160.91;;;21.81;100.00
71165;BME280;58859;55.132;-1.586;2023-08-30T07:47:30;100162.44;;;22.17;100.00
71165;BME280;58859;55.132;-1.586;2023-08-30T07:49:55;100164.97;;;23.68;100.00
71165;BME280;58859;55.132;-1.586;2023-08-30T07:52:21;100170.00;;;23.31;100.00
71165;BME280;58859;55.132;-1.586;2023-08-30T07:54:46;100157.66;;;23.59;100.00
71165;BME280;58859;55.132;-1.586;2023-08-30T07:57:12;100165.66;;;23.09;100.00
71165;BME280;58859;55.132;-1.586;2023-08-30T07:59:38;100167.50;;;22.92;100.00
71165;BME280;58859;55.132;-1.586;2023-08-30T08:02:04;100164.03;;;24.01;100.00
71165;BME280;58859;55.132;-1.586;2023-08-30T08:04:31;100167.44;;;23.75;100.00
71165;BME280;58859;55.132;-1.586;2023-08-30T08:06:57;100177.00;;;23.21;100.00
71165;BME280;58859;55.132;-1.586;2023-08-30T08:09:22;100170.97;;;23.42;100.00
71165;BME280;58859;55.132;-1.586;2023-08-30T08:11:49;100170.47;;;23.83;100.00
71165;BME280;58859;55.132;-1.586;2023-08-30T08:14:14;100179.09;;;23.74;100.00
71165;BME280;58859;55.132;-1.586;2023-08-30T08:16:40;100166.53;;;24.29;100.00
71165;BME280;58859;55.132;-1.586;2023-08-30T08:19:06;100171.94;;;24.66;100.00
71165;BME280;58859;55.132;-1.586;2023-08-30T08:21:33;100171.09;;;23.69;100.00
71165;BME280;58859;55.132;-1.586;2023-08-30T08:23:58;100171.69;;;23.21;100.00
71165;BME280;58859;55.132;-1.586;2023-08-30T08:26:24;100166.19;;;24.04;100.00
71165;BME280;58859;55.132;-1.586;2023-08-30T08:28:50;100167.47;;;24.72;100.00
71165;BME280;58859;55.132;-1.586;2023-08-30T08:31:15;100166.41;;;24.19;100.00
71165;BME280;58859;55.132;-1.586;2023-08-30T08:33:41;100169.75;;;24.10;100.00
71165;BME280;58859;55.132;-1.586;2023-08-30T08:36:06;100174.44;;;24.24;100.00
71165;BME280;58859;55.132;-1.586;2023-08-30T08:38:31;100178.97;;;24.77;100.00
71165;BME280;58859;55.132;-1.586;2023-08-30T08:41:05;100184.69;;;24.16;100.00
71165;BME280;58859;55.132;-1.586;2023-08-30T08:43:32;100185.72;;;23.93;100.00
71165;BME280;58859;55.132;-1.586;2023-08-30T08:46:02;100181.69;;;24.82;100.00
71165;BME280;58859;55.132;-1.586;2023-08-30T08:48:29;100185.31;;;24.23;100.00
71165;BME280;58859;55.132;-1.586;2023-08-30T08:50:57;100186.38;;;24.22;100.00
71165;BME280;58859;55.132;-1.586;2023-08-30T08:53:22;100181.47;;;23.92;100.00
71165;BME280;58859;55.132;-1.586;2023-08-30T08:55:49;100183.53;;;24.28;100.00
71165;BME280;58859;55.132;-1.586;2023-08-30T08:58:15;100181.44;;;24.57;100.00
71165;BME280;58859;55.132;-1.586;2023-08-30T09:00:44;100183.03;;;24.31;100.00
71165;BME280;58859;55.132;-1.586;2023-08-30T09:03:10;100190.09;;;24.74;100.00
71165;BME280;58859;55.132;-1.586;2023-08-30T09:05:39;100197.19;;;24.37;100.00
71165;BME280;58859;55.132;-1.586;2023-08-30T09:08:06;100181.69;;;24.82;100.00
71165;BME280;58859;55.132;-1.586;2023-08-30T09:10:32;100179.34;;;24.86;100.00
71165;BME280;58859;55.132;-1.586;2023-08-30T09:12:58;100176.31;;;24.77;100.00
71165;BME280;58859;55.132;-1.586;2023-08-30T09:15:31;100173.66;;;24.50;100.00
71165;BME280;58859;55.132;-1.586;2023-08-30T09:17:56;100173.03;;;24.97;100.00
71165;BME280;58859;55.132;-1.586;2023-08-30T09:20:22;100181.66;;;24.29;100.00
71165;BME280;58859;55.132;-1.586;2023-08-30T09:22:47;100183.06;;;24.90;100.00
71165;BME280;58859;55.132;-1.586;2023-08-30T09:25:24;100188.69;;;24.93;100.00
71165;BME280;58859;55.132;-1.586;2023-08-30T09:27:50;100194.34;;;25.02;100.00
71165;BME280;58859;55.132;-1.586;2023-08-30T09:30:21;100179.03;;;25.14;100.00
71165;BME280;58859;55.132;-1.586;2023-08-30T09:32:47;100190.81;;;24.65;100.00
71165;BME280;58859;55.132;-1.586;2023-08-30T09:35:12;100196.63;;;24.62;100.00
71165;BME280;58859;55.132;-1.586;2023-08-30T09:37:37;100179.06;;;25.19;100.00
71165;BME280;58859;55.132;-1.586;2023-08-30T09:40:03;100188.38;;;25.53;100.00
71165;BME280;58859;55.132;-1.586;2023-08-30T09:42:29;100193.75;;;25.27;100.00
71165;BME280;58859;55.132;-1.586;2023-08-30T09:44:56;100178.94;;;25.04;100.00
71165;BME280;58859;55.132;-1.586;2023-08-30T09:47:24;100186.53;;;25.59;100.00
71165;BME280;58859;55.132;-1.586;2023-08-30T09:49:51;100177.03;;;25.36;100.00
71165;BME280;58859;55.132;-1.586;2023-08-30T09:52:20;100190.28;;;26.15;100.00
71165;BME280;58859;55.132;-1.586;2023-08-30T09:54:48;100177.91;;;25.94;100.00
71165;BME280;58859;55.132;-1.586;2023-08-30T09:57:14;100180.28;;;25.90;100.00
71165;BME280;58859;55.132;-1.586;2023-08-30T09:59:40;100184.38;;;25.56;100.00
71165;BME280;58859;55.132;-1.586;2023-08-30T10:02:08;100191.38;;;25.30;100.00
71165;BME280;58859;55.132;-1.586;2023-08-30T10:04:35;100199.50;;;25.13;100.00
71165;BME280;58859;55.132;-1.586;2023-08-30T10:07:03;100191.63;;;25.65;100.00
71165;BME280;58859;55.132;-1.586;2023-08-30T10:09:29;100198.66;;;25.87;100.00
71165;BME280;58859;55.132;-1.586;2023-08-30T10:11:57;100201.72;;;25.58;100.00
71165;BME280;58859;55.132;-1.586;2023-08-30T10:14:23;100195.81;;;25.51;100.00
71165;BME280;58859;55.132;-1.586;2023-08-30T10:16:49;100204.31;;;25.17;100.00
71165;BME280;58859;55.132;-1.586;2023-08-30T10:21:56;100199.41;;;25.40;100.00
71165;BME280;58859;55.132;-1.586;2023-08-30T10:24:26;100200.13;;;25.26;100.00
71165;BME280;58859;55.132;-1.586;2023-08-30T10:26:54;100195.47;;;24.52;100.00
71165;BME280;58859;55.132;-1.586;2023-08-30T10:29:20;100210.31;;;25.02;100.00
71165;BME280;58859;55.132;-1.586;2023-08-30T10:31:46;100204.25;;;25.85;100.00
71165;BME280;58859;55.132;-1.586;2023-08-30T10:34:14;100198.38;;;25.83;100.00
71165;BME280;58859;55.132;-1.586;2023-08-30T10:36:41;100196.50;;;25.79;100.00
71165;BME280;58859;55.132;-1.586;2023-08-30T10:39:11;100205.47;;;25.26;100.00
71165;BME280;58859;55.132;-1.586;2023-08-30T10:41:37;100206.84;;;26.27;100.00
71165;BME280;58859;55.132;-1.586;2023-08-30T10:44:03;100196.09;;;26.12;100.00
71165;BME280;58859;55.132;-1.586;2023-08-30T10:46:33;100211.50;;;27.02;100.00
71165;BME280;58859;55.132;-1.586;2023-08-30T10:49:27;100209.38;;;27.45;100.00
71165;BME280;58859;55.132;-1.586;2023-08-30T10:51:56;100220.78;;;26.49;100.00
71165;BME280;58859;55.132;-1.586;2023-08-30T10:54:37;100217.91;;;25.52;100.00
71165;BME280;58859;55.132;-1.586;2023-08-30T10:57:12;100229.94;;;24.91;100.00
71165;BME280;58859;55.132;-1.586;2023-08-30T10:59:37;100227.53;;;25.58;100.00
71165;BME280;58859;55.132;-1.586;2023-08-30T11:02:03;100210.63;;;26.36;100.00
71165;BME280;58859;55.132;-1.586;2023-08-30T11:04:29;100206.91;;;26.42;100.00
71165;BME280;58859;55.132;-1.586;2023-08-30T11:06:55;100209.41;;;26.12;100.00
71165;BME280;58859;55.132;-1.586;2023-08-30T11:09:22;100193.50;;;25.28;100.00
71165;BME280;58859;55.132;-1.586;2023-08-30T11:11:48;100214.41;;;25.14;100.00
71165;BME280;58859;55.132;-1.586;2023-08-30T11:14:16;100218.38;;;25.12;100.00
71165;BME280;58859;55.132;-1.586;2023-08-30T11:16:41;100218.78;;;25.62;100.00
71165;BME280;58859;55.132;-1.586;2023-08-30T11:19:10;100218.16;;;25.13;100.00
71165;BME280;58859;55.132;-1.586;2023-08-30T11:21:38;100222.88;;;24.53;100.00
71165;BME280;58859;55.132;-1.586;2023-08-30T11:24:05;100222.94;;;24.36;100.00
71165;BME280;58859;55.132;-1.586;2023-08-30T11:26:30;100223.03;;;24.95;100.00
71165;BME280;58859;55.132;-1.586;2023-08-30T11:28:56;100214.56;;;24.23;100.00
71165;BME280;58859;55.132;-1.586;2023-08-30T11:31:22;100219.25;;;24.64;100.00
71165;BME280;58859;55.132;-1.586;2023-08-30T11:33:58;100223.56;;;24.70;100.00
71165;BME280;58859;55.132;-1.586;2023-08-30T11:36:26;100228.19;;;24.53;100.00
71165;BME280;58859;55.132;-1.586;2023-08-30T11:38:53;100233.44;;;25.65;100.00
71165;BME280;58859;55.132;-1.586;2023-08-30T11:41:21;100239.88;;;24.79;100.00
71165;BME280;58859;55.132;-1.586;2023-08-30T11:43:48;100236.97;;;23.72;100.00
71165;BME280;58859;55.132;-1.586;2023-08-30T11:46:14;100235.00;;;24.00;100.00
71165;BME280;58859;55.132;-1.586;2023-08-30T11:48:40;100235.03;;;24.06;100.00
71165;BME280;58859;55.132;-1.586;2023-08-30T11:51:06;100240.03;;;23.80;100.00
71165;BME280;58859;55.132;-1.586;2023-08-30T11:53:33;100233.69;;;24.46;100.00
71165;BME280;58859;55.132;-1.586;2023-08-30T11:55:58;100229.25;;;25.05;100.00
71165;BME280;58859;55.132;-1.586;2023-08-30T11:58:23;100230.25;;;25.31;100.00
71165;BME280;58859;55.132;-1.586;2023-08-30T12:00:53;100224.50;;;25.86;100.00
71165;BME280;58859;55.132;-1.586;2023-08-30T12:03:22;100226.34;;;25.44;100.00
71165;BME280;58859;55.132;-1.586;2023-08-30T12:05:49;100233.25;;;25.40;100.00
71165;BME280;58859;55.132;-1.586;2023-08-30T12:08:25;100243.00;;;25.29;100.00
71165;BME280;58859;55.132;-1.586;2023-08-30T12:10:52;100238.22;;;24.24;100.00
71165;BME280;58859;55.132;-1.586;2023-08-30T12:13:27;100243.19;;;23.99;100.00
71165;BME280;58859;55.132;-1.586;2023-08-30T12:15:55;100237.78;;;24.32;100.00
71165;BME280;58859;55.132;-1.586;2023-08-30T12:18:36;100238.47;;;24.23;100.00
71165;BME280;58859;55.132;-1.586;2023-08-30T12:21:04;100226.00;;;24.98;100.00
71165;BME280;58859;55.132;-1.586;2023-08-30T12:23:32;100236.50;;;25.47;100.00
71165;BME280;58859;55.132;-1.586;2023-08-30T12:28:36;100242.81;;;25.36;100.00
71165;BME280;58859;55.132;-1.586;2023-08-30T12:31:02;100240.28;;;24.66;100.00
71165;BME280;58859;55.132;-1.586;2023-08-30T12:33:29;100246.56;;;25.40;100.00
71165;BME280;58859;55.132;-1.586;2023-08-30T12:35:55;100244.91;;;25.65;100.00